Hines, Minnesota
Current Conditions -  °F | °C
As of 2:13 PM on Thursday 29 Jan 2015 (Local Time) from KBJI Reporting Station
Clear Clear  
Wind Chill: -4°   Ceiling: Unl
Heat Index: 13°   Visibility: 10mi
Dew Point:   Wind: 17mph
Humidity: 72%   Direction: 310°NW
Pressure: 30.37"   Gusts: NA
Location:  47.69°N, 94.63°W
Report Text: KBJI 292013Z AUTO 31015KT 10SM CLR M10/M15 A3037 RMK AO2 T11051146
Loading
Personal Weather Stations






























Interactive Weather Map New forecast layout! Learn more

10-Day Weather Forecast

Advertisements
Track Severe Weather on mobile